sensor_id;sensor_type;location;lat;lon;timestamp;P1;durP1;ratioP1;P2;durP2;ratioP2
71290;SDS011;59073;51.994;4.448;2023-11-21T00:00:33;3.34;;;3.34;;
71290;SDS011;59073;51.994;4.448;2023-11-21T00:02:59;3.13;;;3.12;;
71290;SDS011;59073;51.994;4.448;2023-11-21T00:05:24;3.40;;;3.40;;
71290;SDS011;59073;51.994;4.448;2023-11-21T00:07:49;3.18;;;3.18;;
71290;SDS011;59073;51.994;4.448;2023-11-21T00:10:16;3.41;;;3.41;;
71290;SDS011;59073;51.994;4.448;2023-11-21T00:12:42;3.45;;;3.45;;
71290;SDS011;59073;51.994;4.448;2023-11-21T00:15:08;3.63;;;3.63;;
71290;SDS011;59073;51.994;4.448;2023-11-21T00:17:36;3.50;;;3.50;;
71290;SDS011;59073;51.994;4.448;2023-11-21T00:20:02;3.88;;;3.88;;
71290;SDS011;59073;51.994;4.448;2023-11-21T00:22:31;3.52;;;3.51;;
71290;SDS011;59073;51.994;4.448;2023-11-21T00:24:57;3.32;;;3.32;;
71290;SDS011;59073;51.994;4.448;2023-11-21T00:27:23;3.84;;;3.84;;
71290;SDS011;59073;51.994;4.448;2023-11-21T00:29:48;3.37;;;3.37;;
71290;SDS011;59073;51.994;4.448;2023-11-21T00:32:13;3.82;;;3.82;;
71290;SDS011;59073;51.994;4.448;2023-11-21T00:34:39;3.75;;;3.75;;
71290;SDS011;59073;51.994;4.448;2023-11-21T00:37:05;3.29;;;3.29;;
71290;SDS011;59073;51.994;4.448;2023-11-21T00:39:30;3.57;;;3.57;;
71290;SDS011;59073;51.994;4.448;2023-11-21T00:41:55;3.34;;;3.34;;
71290;SDS011;59073;51.994;4.448;2023-11-21T00:44:21;3.53;;;3.51;;
71290;SDS011;59073;51.994;4.448;2023-11-21T00:46:46;3.36;;;3.36;;
71290;SDS011;59073;51.994;4.448;2023-11-21T00:49:12;3.44;;;3.44;;
71290;SDS011;59073;51.994;4.448;2023-11-21T00:51:38;3.17;;;3.17;;
71290;SDS011;59073;51.994;4.448;2023-11-21T00:54:03;3.33;;;3.33;;
71290;SDS011;59073;51.994;4.448;2023-11-21T00:56:29;3.51;;;3.51;;
71290;SDS011;59073;51.994;4.448;2023-11-21T00:58:54;3.26;;;3.26;;
71290;SDS011;59073;51.994;4.448;2023-11-21T01:01:20;3.23;;;3.23;;
71290;SDS011;59073;51.994;4.448;2023-11-21T01:03:48;3.07;;;3.07;;
71290;SDS011;59073;51.994;4.448;2023-11-21T01:06:14;3.16;;;3.16;;
71290;SDS011;59073;51.994;4.448;2023-11-21T01:08:40;3.18;;;3.18;;
71290;SDS011;59073;51.994;4.448;2023-11-21T01:11:05;3.51;;;3.50;;
71290;SDS011;59073;51.994;4.448;2023-11-21T01:13:33;3.63;;;3.63;;
71290;SDS011;59073;51.994;4.448;2023-11-21T01:16:00;3.50;;;3.49;;
71290;SDS011;59073;51.994;4.448;2023-11-21T01:18:25;3.70;;;3.69;;
71290;SDS011;59073;51.994;4.448;2023-11-21T01:20:51;3.24;;;3.24;;
71290;SDS011;59073;51.994;4.448;2023-11-21T01:23:18;3.74;;;3.74;;
71290;SDS011;59073;51.994;4.448;2023-11-21T01:25:44;4.31;;;4.30;;
71290;SDS011;59073;51.994;4.448;2023-11-21T01:28:10;4.54;;;4.50;;
71290;SDS011;59073;51.994;4.448;2023-11-21T01:30:35;4.26;;;4.24;;
71290;SDS011;59073;51.994;4.448;2023-11-21T01:33:01;3.93;;;3.92;;
71290;SDS011;59073;51.994;4.448;2023-11-21T01:35:26;4.13;;;4.13;;
71290;SDS011;59073;51.994;4.448;2023-11-21T01:37:51;3.47;;;3.47;;
71290;SDS011;59073;51.994;4.448;2023-11-21T01:40:17;3.60;;;3.60;;
71290;SDS011;59073;51.994;4.448;2023-11-21T01:42:42;3.67;;;3.67;;
71290;SDS011;59073;51.994;4.448;2023-11-21T01:45:09;3.70;;;3.70;;
71290;SDS011;59073;51.994;4.448;2023-11-21T01:47:35;3.34;;;3.33;;
71290;SDS011;59073;51.994;4.448;2023-11-21T01:50:02;3.42;;;3.41;;
71290;SDS011;59073;51.994;4.448;2023-11-21T01:52:31;3.51;;;3.51;;
71290;SDS011;59073;51.994;4.448;2023-11-21T01:54:57;3.41;;;3.41;;
71290;SDS011;59073;51.994;4.448;2023-11-21T01:57:25;3.77;;;3.76;;
71290;SDS011;59073;51.994;4.448;2023-11-21T01:59:50;3.42;;;3.42;;
71290;SDS011;59073;51.994;4.448;2023-11-21T02:02:19;3.31;;;3.29;;
71290;SDS011;59073;51.994;4.448;2023-11-21T02:04:45;3.35;;;3.34;;
71290;SDS011;59073;51.994;4.448;2023-11-21T02:07:10;3.44;;;3.42;;
71290;SDS011;59073;51.994;4.448;2023-11-21T02:09:36;3.75;;;3.75;;
71290;SDS011;59073;51.994;4.448;2023-11-21T02:12:03;3.51;;;3.51;;
71290;SDS011;59073;51.994;4.448;2023-11-21T02:14:29;3.69;;;3.69;;
71290;SDS011;59073;51.994;4.448;2023-11-21T02:16:56;3.56;;;3.56;;
71290;SDS011;59073;51.994;4.448;2023-11-21T02:19:22;3.27;;;3.27;;
71290;SDS011;59073;51.994;4.448;2023-11-21T02:21:51;3.38;;;3.37;;
71290;SDS011;59073;51.994;4.448;2023-11-21T02:24:19;3.60;;;3.60;;
71290;SDS011;59073;51.994;4.448;2023-11-21T02:26:45;3.46;;;3.46;;
71290;SDS011;59073;51.994;4.448;2023-11-21T02:29:11;3.61;;;3.61;;
71290;SDS011;59073;51.994;4.448;2023-11-21T02:31:38;4.18;;;4.18;;
71290;SDS011;59073;51.994;4.448;2023-11-21T02:34:13;4.09;;;4.09;;
71290;SDS011;59073;51.994;4.448;2023-11-21T02:36:39;3.86;;;3.86;;
71290;SDS011;59073;51.994;4.448;2023-11-21T02:39:05;3.72;;;3.72;;
71290;SDS011;59073;51.994;4.448;2023-11-21T02:41:31;3.52;;;3.52;;
71290;SDS011;59073;51.994;4.448;2023-11-21T02:43:57;3.72;;;3.72;;
71290;SDS011;59073;51.994;4.448;2023-11-21T02:46:22;3.71;;;3.70;;
71290;SDS011;59073;51.994;4.448;2023-11-21T02:48:47;3.38;;;3.37;;
71290;SDS011;59073;51.994;4.448;2023-11-21T02:51:13;3.63;;;3.63;;
71290;SDS011;59073;51.994;4.448;2023-11-21T02:53:40;3.20;;;3.20;;
71290;SDS011;59073;51.994;4.448;2023-11-21T02:56:06;3.05;;;3.05;;
71290;SDS011;59073;51.994;4.448;2023-11-21T02:58:32;2.65;;;2.65;;
71290;SDS011;59073;51.994;4.448;2023-11-21T03:00:57;2.69;;;2.68;;
71290;SDS011;59073;51.994;4.448;2023-11-21T03:03:23;3.03;;;3.03;;
71290;SDS011;59073;51.994;4.448;2023-11-21T03:05:49;3.45;;;3.44;;
71290;SDS011;59073;51.994;4.448;2023-11-21T03:08:15;3.02;;;3.00;;
71290;SDS011;59073;51.994;4.448;2023-11-21T03:10:40;3.12;;;3.10;;
71290;SDS011;59073;51.994;4.448;2023-11-21T03:13:06;3.45;;;3.44;;
71290;SDS011;59073;51.994;4.448;2023-11-21T03:15:31;2.85;;;2.85;;
71290;SDS011;59073;51.994;4.448;2023-11-21T03:17:57;2.55;;;2.55;;
71290;SDS011;59073;51.994;4.448;2023-11-21T03:20:23;2.48;;;2.48;;
71290;SDS011;59073;51.994;4.448;2023-11-21T03:22:48;2.66;;;2.66;;
71290;SDS011;59073;51.994;4.448;2023-11-21T03:25:14;3.02;;;3.02;;
71290;SDS011;59073;51.994;4.448;2023-11-21T03:27:41;3.11;;;3.10;;
71290;SDS011;59073;51.994;4.448;2023-11-21T03:30:07;3.25;;;3.24;;
71290;SDS011;59073;51.994;4.448;2023-11-21T03:32:34;3.19;;;3.19;;
71290;SDS011;59073;51.994;4.448;2023-11-21T03:35:00;2.88;;;2.88;;
71290;SDS011;59073;51.994;4.448;2023-11-21T03:37:27;3.19;;;3.19;;
71290;SDS011;59073;51.994;4.448;2023-11-21T03:39:52;2.95;;;2.95;;
71290;SDS011;59073;51.994;4.448;2023-11-21T03:42:19;3.22;;;3.22;;
71290;SDS011;59073;51.994;4.448;2023-11-21T03:44:44;2.84;;;2.84;;
71290;SDS011;59073;51.994;4.448;2023-11-21T03:47:10;2.97;;;2.97;;
71290;SDS011;59073;51.994;4.448;2023-11-21T03:49:35;3.59;;;3.59;;
71290;SDS011;59073;51.994;4.448;2023-11-21T03:52:00;3.52;;;3.52;;
71290;SDS011;59073;51.994;4.448;2023-11-21T03:54:26;3.09;;;3.09;;
71290;SDS011;59073;51.994;4.448;2023-11-21T03:56:51;3.16;;;3.15;;
71290;SDS011;59073;51.994;4.448;2023-11-21T03:59:17;3.25;;;3.25;;
71290;SDS011;59073;51.994;4.448;2023-11-21T04:01:42;2.77;;;2.77;;
71290;SDS011;59073;51.994;4.448;2023-11-21T04:04:08;2.84;;;2.84;;
71290;SDS011;59073;51.994;4.448;2023-11-21T04:06:33;2.82;;;2.82;;
71290;SDS011;59073;51.994;4.448;2023-11-21T04:08:59;2.77;;;2.77;;
71290;SDS011;59073;51.994;4.448;2023-11-21T04:11:24;3.13;;;3.13;;
71290;SDS011;59073;51.994;4.448;2023-11-21T04:13:49;3.00;;;3.00;;
71290;SDS011;59073;51.994;4.448;2023-11-21T04:16:15;3.27;;;3.27;;
71290;SDS011;59073;51.994;4.448;2023-11-21T04:18:40;3.11;;;3.11;;
71290;SDS011;59073;51.994;4.448;2023-11-21T04:21:06;2.57;;;2.56;;
71290;SDS011;59073;51.994;4.448;2023-11-21T04:23:33;3.00;;;3.00;;
71290;SDS011;59073;51.994;4.448;2023-11-21T04:25:59;2.49;;;2.49;;
71290;SDS011;59073;51.994;4.448;2023-11-21T04:28:25;2.74;;;2.73;;
71290;SDS011;59073;51.994;4.448;2023-11-21T04:30:51;2.29;;;2.29;;
71290;SDS011;59073;51.994;4.448;2023-11-21T04:33:16;2.33;;;2.33;;
71290;SDS011;59073;51.994;4.448;2023-11-21T04:35:42;2.77;;;2.77;;
71290;SDS011;59073;51.994;4.448;2023-11-21T04:38:07;3.38;;;3.38;;
71290;SDS011;59073;51.994;4.448;2023-11-21T04:40:32;2.87;;;2.87;;
71290;SDS011;59073;51.994;4.448;2023-11-21T04:42:58;3.07;;;3.07;;
71290;SDS011;59073;51.994;4.448;2023-11-21T04:45:23;3.47;;;3.47;;
71290;SDS011;59073;51.994;4.448;2023-11-21T04:47:49;3.00;;;3.00;;
71290;SDS011;59073;51.994;4.448;2023-11-21T04:50:14;2.79;;;2.79;;
71290;SDS011;59073;51.994;4.448;2023-11-21T04:52:39;2.62;;;2.62;;
71290;SDS011;59073;51.994;4.448;2023-11-21T04:55:05;3.16;;;3.16;;
71290;SDS011;59073;51.994;4.448;2023-11-21T04:57:34;2.71;;;2.71;;
71290;SDS011;59073;51.994;4.448;2023-11-21T05:00:00;3.02;;;3.02;;
71290;SDS011;59073;51.994;4.448;2023-11-21T05:02:26;2.79;;;2.79;;
71290;SDS011;59073;51.994;4.448;2023-11-21T05:04:51;2.81;;;2.81;;
71290;SDS011;59073;51.994;4.448;2023-11-21T05:07:18;2.42;;;2.42;;
71290;SDS011;59073;51.994;4.448;2023-11-21T05:09:43;2.73;;;2.73;;
71290;SDS011;59073;51.994;4.448;2023-11-21T05:12:11;2.90;;;2.90;;
71290;SDS011;59073;51.994;4.448;2023-11-21T05:14:38;3.24;;;3.24;;
71290;SDS011;59073;51.994;4.448;2023-11-21T05:17:03;2.96;;;2.96;;
71290;SDS011;59073;51.994;4.448;2023-11-21T05:19:29;2.74;;;2.74;;
71290;SDS011;59073;51.994;4.448;2023-11-21T05:21:55;2.74;;;2.74;;
71290;SDS011;59073;51.994;4.448;2023-11-21T05:24:20;2.74;;;2.74;;
71290;SDS011;59073;51.994;4.448;2023-11-21T05:26:46;2.71;;;2.71;;
71290;SDS011;59073;51.994;4.448;2023-11-21T05:29:11;2.31;;;2.31;;
71290;SDS011;59073;51.994;4.448;2023-11-21T05:31:37;2.19;;;2.19;;
71290;SDS011;59073;51.994;4.448;2023-11-21T05:34:03;1.87;;;1.87;;
71290;SDS011;59073;51.994;4.448;2023-11-21T05:36:30;1.91;;;1.91;;
71290;SDS011;59073;51.994;4.448;2023-11-21T05:38:56;1.29;;;1.29;;
71290;SDS011;59073;51.994;4.448;2023-11-21T05:41:21;1.09;;;1.09;;
71290;SDS011;59073;51.994;4.448;2023-11-21T05:43:47;1.36;;;1.36;;
71290;SDS011;59073;51.994;4.448;2023-11-21T05:46:12;1.23;;;1.23;;
71290;SDS011;59073;51.994;4.448;2023-11-21T05:48:38;1.20;;;1.20;;
71290;SDS011;59073;51.994;4.448;2023-11-21T05:51:04;1.44;;;1.44;;
71290;SDS011;59073;51.994;4.448;2023-11-21T05:53:31;1.89;;;1.89;;
71290;SDS011;59073;51.994;4.448;2023-11-21T05:55:56;1.86;;;1.86;;
71290;SDS011;59073;51.994;4.448;2023-11-21T05:58:22;1.98;;;1.98;;
71290;SDS011;59073;51.994;4.448;2023-11-21T06:00:47;1.49;;;1.49;;
71290;SDS011;59073;51.994;4.448;2023-11-21T06:03:13;1.84;;;1.84;;
71290;SDS011;59073;51.994;4.448;2023-11-21T06:05:38;2.24;;;2.24;;
71290;SDS011;59073;51.994;4.448;2023-11-21T06:08:04;2.35;;;2.35;;
71290;SDS011;59073;51.994;4.448;2023-11-21T06:10:29;2.26;;;2.26;;
71290;SDS011;59073;51.994;4.448;2023-11-21T06:12:55;2.43;;;2.43;;
71290;SDS011;59073;51.994;4.448;2023-11-21T06:15:20;2.18;;;2.18;;
71290;SDS011;59073;51.994;4.448;2023-11-21T06:17:48;2.01;;;2.01;;
71290;SDS011;59073;51.994;4.448;2023-11-21T06:20:18;1.92;;;1.92;;
71290;SDS011;59073;51.994;4.448;2023-11-21T06:22:47;1.80;;;1.79;;
71290;SDS011;59073;51.994;4.448;2023-11-21T06:25:15;1.84;;;1.83;;
71290;SDS011;59073;51.994;4.448;2023-11-21T06:27:41;2.00;;;2.00;;
71290;SDS011;59073;51.994;4.448;2023-11-21T06:30:08;2.01;;;2.01;;
71290;SDS011;59073;51.994;4.448;2023-11-21T06:32:38;1.78;;;1.78;;
71290;SDS011;59073;51.994;4.448;2023-11-21T06:35:05;2.08;;;2.08;;
71290;SDS011;59073;51.994;4.448;2023-11-21T06:37:31;1.76;;;1.76;;
71290;SDS011;59073;51.994;4.448;2023-11-21T06:39:58;2.07;;;2.07;;
71290;SDS011;59073;51.994;4.448;2023-11-21T06:42:25;1.96;;;1.96;;
71290;SDS011;59073;51.994;4.448;2023-11-21T06:44:51;1.94;;;1.94;;
71290;SDS011;59073;51.994;4.448;2023-11-21T06:47:18;1.85;;;1.85;;
71290;SDS011;59073;51.994;4.448;2023-11-21T06:49:47;2.00;;;2.00;;
71290;SDS011;59073;51.994;4.448;2023-11-21T06:52:15;1.78;;;1.78;;
71290;SDS011;59073;51.994;4.448;2023-11-21T06:54:41;1.73;;;1.72;;
71290;SDS011;59073;51.994;4.448;2023-11-21T06:57:06;1.74;;;1.73;;
71290;SDS011;59073;51.994;4.448;2023-11-21T06:59:31;1.57;;;1.56;;
71290;SDS011;59073;51.994;4.448;2023-11-21T07:01:57;1.65;;;1.65;;
71290;SDS011;59073;51.994;4.448;2023-11-21T07:04:22;1.47;;;1.47;;
71290;SDS011;59073;51.994;4.448;2023-11-21T07:06:49;1.42;;;1.42;;
71290;SDS011;59073;51.994;4.448;2023-11-21T07:09:14;1.55;;;1.55;;
71290;SDS011;59073;51.994;4.448;2023-11-21T07:11:40;1.58;;;1.58;;
71290;SDS011;59073;51.994;4.448;2023-11-21T07:14:06;1.58;;;1.58;;
71290;SDS011;59073;51.994;4.448;2023-11-21T07:16:35;1.63;;;1.63;;
71290;SDS011;59073;51.994;4.448;2023-11-21T07:19:02;1.69;;;1.66;;
71290;SDS011;59073;51.994;4.448;2023-11-21T07:21:34;1.85;;;1.81;;
71290;SDS011;59073;51.994;4.448;2023-11-21T07:24:01;1.91;;;1.88;;
71290;SDS011;59073;51.994;4.448;2023-11-21T07:26:27;1.91;;;1.87;;
71290;SDS011;59073;51.994;4.448;2023-11-21T07:28:53;1.72;;;1.68;;
71290;SDS011;59073;51.994;4.448;2023-11-21T07:31:19;1.95;;;1.88;;
71290;SDS011;59073;51.994;4.448;2023-11-21T07:33:45;1.94;;;1.86;;
71290;SDS011;59073;51.994;4.448;2023-11-21T07:36:12;2.28;;;2.19;;
71290;SDS011;59073;51.994;4.448;2023-11-21T07:38:38;2.00;;;1.92;;
71290;SDS011;59073;51.994;4.448;2023-11-21T07:41:04;2.06;;;1.98;;
71290;SDS011;59073;51.994;4.448;2023-11-21T07:43:30;2.19;;;2.08;;
71290;SDS011;59073;51.994;4.448;2023-11-21T07:46:00;2.09;;;1.99;;
71290;SDS011;59073;51.994;4.448;2023-11-21T07:48:31;2.58;;;2.43;;
71290;SDS011;59073;51.994;4.448;2023-11-21T07:50:57;2.32;;;2.20;;
71290;SDS011;59073;51.994;4.448;2023-11-21T07:53:24;2.15;;;2.07;;
71290;SDS011;59073;51.994;4.448;2023-11-21T07:55:56;2.55;;;2.45;;
71290;SDS011;59073;51.994;4.448;2023-11-21T07:58:22;2.49;;;2.37;;
71290;SDS011;59073;51.994;4.448;2023-11-21T08:00:49;2.29;;;2.15;;
71290;SDS011;59073;51.994;4.448;2023-11-21T08:03:14;2.52;;;2.36;;
71290;SDS011;59073;51.994;4.448;2023-11-21T08:05:40;2.26;;;2.11;;
71290;SDS011;59073;51.994;4.448;2023-11-21T08:08:05;2.51;;;2.38;;
71290;SDS011;59073;51.994;4.448;2023-11-21T08:10:31;2.21;;;2.08;;
71290;SDS011;59073;51.994;4.448;2023-11-21T08:12:56;2.63;;;2.44;;
71290;SDS011;59073;51.994;4.448;2023-11-21T08:15:22;2.47;;;2.31;;
71290;SDS011;59073;51.994;4.448;2023-11-21T08:17:47;2.43;;;2.27;;
71290;SDS011;59073;51.994;4.448;2023-11-21T08:20:13;2.44;;;2.31;;
71290;SDS011;59073;51.994;4.448;2023-11-21T08:22:41;2.34;;;2.23;;
71290;SDS011;59073;51.994;4.448;2023-11-21T08:25:07;2.61;;;2.53;;
71290;SDS011;59073;51.994;4.448;2023-11-21T08:27:33;2.44;;;2.36;;
71290;SDS011;59073;51.994;4.448;2023-11-21T08:30:00;2.77;;;2.68;;
71290;SDS011;59073;51.994;4.448;2023-11-21T08:32:26;2.58;;;2.50;;
71290;SDS011;59073;51.994;4.448;2023-11-21T08:34:51;2.61;;;2.53;;
71290;SDS011;59073;51.994;4.448;2023-11-21T08:37:17;2.96;;;2.87;;
71290;SDS011;59073;51.994;4.448;2023-11-21T08:39:43;3.26;;;3.10;;
71290;SDS011;59073;51.994;4.448;2023-11-21T08:42:09;2.69;;;2.53;;
71290;SDS011;59073;51.994;4.448;2023-11-21T08:44:35;3.20;;;2.99;;
71290;SDS011;59073;51.994;4.448;2023-11-21T08:47:00;3.10;;;2.95;;
71290;SDS011;59073;51.994;4.448;2023-11-21T08:49:25;3.14;;;3.01;;
71290;SDS011;59073;51.994;4.448;2023-11-21T08:51:53;2.89;;;2.76;;
71290;SDS011;59073;51.994;4.448;2023-11-21T08:54:20;3.23;;;3.04;;
71290;SDS011;59073;51.994;4.448;2023-11-21T08:56:46;2.87;;;2.72;;
71290;SDS011;59073;51.994;4.448;2023-11-21T08:59:12;2.66;;;2.56;;
71290;SDS011;59073;51.994;4.448;2023-11-21T09:01:39;2.76;;;2.65;;
71290;SDS011;59073;51.994;4.448;2023-11-21T09:04:05;2.74;;;2.65;;
71290;SDS011;59073;51.994;4.448;2023-11-21T09:06:30;2.28;;;2.23;;
71290;SDS011;59073;51.994;4.448;2023-11-21T09:08:56;2.66;;;2.57;;
71290;SDS011;59073;51.994;4.448;2023-11-21T09:11:21;2.81;;;2.74;;
71290;SDS011;59073;51.994;4.448;2023-11-21T09:13:46;2.52;;;2.49;;
71290;SDS011;59073;51.994;4.448;2023-11-21T09:16:13;2.57;;;2.56;;
71290;SDS011;59073;51.994;4.448;2023-11-21T09:18:40;2.74;;;2.72;;
71290;SDS011;59073;51.994;4.448;2023-11-21T09:21:06;2.40;;;2.38;;
71290;SDS011;59073;51.994;4.448;2023-11-21T09:23:31;2.28;;;2.28;;
71290;SDS011;59073;51.994;4.448;2023-11-21T09:25:56;2.42;;;2.42;;
71290;SDS011;59073;51.994;4.448;2023-11-21T09:28:24;2.83;;;2.83;;
71290;SDS011;59073;51.994;4.448;2023-11-21T09:30:52;2.67;;;2.66;;
71290;SDS011;59073;51.994;4.448;2023-11-21T09:33:18;2.81;;;2.80;;
71290;SDS011;59073;51.994;4.448;2023-11-21T09:35:43;2.97;;;2.95;;
71290;SDS011;59073;51.994;4.448;2023-11-21T09:38:09;2.70;;;2.68;;
71290;SDS011;59073;51.994;4.448;2023-11-21T09:40:36;2.86;;;2.86;;
71290;SDS011;59073;51.994;4.448;2023-11-21T09:43:05;2.98;;;2.98;;
71290;SDS011;59073;51.994;4.448;2023-11-21T09:45:35;3.27;;;3.27;;
71290;SDS011;59073;51.994;4.448;2023-11-21T09:48:03;3.34;;;3.34;;
71290;SDS011;59073;51.994;4.448;2023-11-21T09:50:30;3.24;;;3.23;;
71290;SDS011;59073;51.994;4.448;2023-11-21T09:53:09;3.52;;;3.51;;
71290;SDS011;59073;51.994;4.448;2023-11-21T09:55:45;3.96;;;3.95;;
71290;SDS011;59073;51.994;4.448;2023-11-21T09:58:13;3.59;;;3.59;;
71290;SDS011;59073;51.994;4.448;2023-11-21T10:00:43;3.72;;;3.72;;
71290;SDS011;59073;51.994;4.448;2023-11-21T10:03:10;3.92;;;3.92;;
71290;SDS011;59073;51.994;4.448;2023-11-21T10:05:36;4.48;;;4.48;;
71290;SDS011;59073;51.994;4.448;2023-11-21T10:08:09;4.27;;;4.25;;
71290;SDS011;59073;51.994;4.448;2023-11-21T10:10:36;4.04;;;4.03;;
71290;SDS011;59073;51.994;4.448;2023-11-21T10:13:04;4.71;;;4.66;;
71290;SDS011;59073;51.994;4.448;2023-11-21T10:15:35;4.59;;;4.53;;
71290;SDS011;59073;51.994;4.448;2023-11-21T10:18:01;4.83;;;4.76;;
71290;SDS011;59073;51.994;4.448;2023-11-21T10:20:28;5.07;;;5.05;;
71290;SDS011;59073;51.994;4.448;2023-11-21T10:22:56;4.81;;;4.81;;
71290;SDS011;59073;51.994;4.448;2023-11-21T10:25:22;4.57;;;4.57;;
71290;SDS011;59073;51.994;4.448;2023-11-21T10:27:48;4.91;;;4.91;;
71290;SDS011;59073;51.994;4.448;2023-11-21T10:30:17;6.00;;;5.99;;
71290;SDS011;59073;51.994;4.448;2023-11-21T10:32:43;5.66;;;5.63;;
71290;SDS011;59073;51.994;4.448;2023-11-21T10:35:09;4.93;;;4.89;;
71290;SDS011;59073;51.994;4.448;2023-11-21T10:37:36;4.54;;;4.52;;
71290;SDS011;59073;51.994;4.448;2023-11-21T10:40:05;4.71;;;4.68;;
71290;SDS011;59073;51.994;4.448;2023-11-21T10:42:37;4.70;;;4.67;;
71290;SDS011;59073;51.994;4.448;2023-11-21T10:45:04;4.19;;;4.17;;
71290;SDS011;59073;51.994;4.448;2023-11-21T10:47:38;3.75;;;3.75;;
71290;SDS011;59073;51.994;4.448;2023-11-21T10:50:05;4.12;;;4.12;;
71290;SDS011;59073;51.994;4.448;2023-11-21T10:52:31;4.69;;;4.68;;
71290;SDS011;59073;51.994;4.448;2023-11-21T10:54:57;4.21;;;4.18;;
71290;SDS011;59073;51.994;4.448;2023-11-21T10:57:24;3.98;;;3.95;;
71290;SDS011;59073;51.994;4.448;2023-11-21T10:59:50;4.11;;;4.11;;
71290;SDS011;59073;51.994;4.448;2023-11-21T11:02:26;4.32;;;4.32;;
71290;SDS011;59073;51.994;4.448;2023-11-21T11:04:53;4.25;;;4.25;;
71290;SDS011;59073;51.994;4.448;2023-11-21T11:07:25;4.25;;;4.25;;
71290;SDS011;59073;51.994;4.448;2023-11-21T11:09:53;4.81;;;4.81;;
71290;SDS011;59073;51.994;4.448;2023-11-21T11:12:19;4.51;;;4.50;;
71290;SDS011;59073;51.994;4.448;2023-11-21T11:14:45;4.40;;;4.40;;
71290;SDS011;59073;51.994;4.448;2023-11-21T11:17:10;4.09;;;4.09;;
71290;SDS011;59073;51.994;4.448;2023-11-21T11:19:36;4.21;;;4.21;;
71290;SDS011;59073;51.994;4.448;2023-11-21T11:22:07;4.16;;;4.16;;
71290;SDS011;59073;51.994;4.448;2023-11-21T11:30:32;4.64;;;4.59;;
71290;SDS011;59073;51.994;4.448;2023-11-21T11:33:14;5.34;;;5.30;;
71290;SDS011;59073;51.994;4.448;2023-11-21T11:36:00;5.28;;;5.24;;
71290;SDS011;59073;51.994;4.448;2023-11-21T11:38:53;5.52;;;5.49;;
71290;SDS011;59073;51.994;4.448;2023-11-21T11:41:30;5.44;;;5.36;;
71290;SDS011;59073;51.994;4.448;2023-11-21T11:44:00;5.73;;;5.65;;
71290;SDS011;59073;51.994;4.448;2023-11-21T11:46:42;6.68;;;6.59;;
71290;SDS011;59073;51.994;4.448;2023-11-21T11:49:11;6.43;;;6.41;;
71290;SDS011;59073;51.994;4.448;2023-11-21T11:52:26;6.57;;;6.57;;
71290;SDS011;59073;51.994;4.448;2023-11-21T11:54:55;6.56;;;6.53;;
71290;SDS011;59073;51.994;4.448;2023-11-21T11:57:23;6.12;;;6.11;;
71290;SDS011;59073;51.994;4.448;2023-11-21T12:00:08;5.97;;;5.96;;
71290;SDS011;59073;51.994;4.448;2023-11-21T12:02:54;5.82;;;5.80;;
71290;SDS011;59073;51.994;4.448;2023-11-21T12:05:27;6.20;;;6.20;;
71290;SDS011;59073;51.994;4.448;2023-11-21T12:07:53;6.02;;;6.02;;
71290;SDS011;59073;51.994;4.448;2023-11-21T12:10:24;5.64;;;5.63;;
71290;SDS011;59073;51.994;4.448;2023-11-21T12:12:51;6.38;;;6.32;;
71290;SDS011;59073;51.994;4.448;2023-11-21T12:15:18;6.09;;;6.05;;
71290;SDS011;59073;51.994;4.448;2023-11-21T12:17:45;5.95;;;5.95;;
71290;SDS011;59073;51.994;4.448;2023-11-21T12:20:11;5.93;;;5.93;;
71290;SDS011;59073;51.994;4.448;2023-11-21T12:25:24;5.50;;;5.50;;
71290;SDS011;59073;51.994;4.448;2023-11-21T12:27:54;6.27;;;6.18;;
71290;SDS011;59073;51.994;4.448;2023-11-21T12:30:25;5.44;;;5.42;;
71290;SDS011;59073;51.994;4.448;2023-11-21T12:32:56;5.46;;;5.45;;
71290;SDS011;59073;51.994;4.448;2023-11-21T12:35:27;5.84;;;5.81;;
71290;SDS011;59073;51.994;4.448;2023-11-21T12:37:56;5.71;;;5.69;;
71290;SDS011;59073;51.994;4.448;2023-11-21T12:40:22;5.26;;;5.26;;
71290;SDS011;59073;51.994;4.448;2023-11-21T12:42:49;4.95;;;4.95;;
71290;SDS011;59073;51.994;4.448;2023-11-21T12:45:24;5.50;;;5.50;;
71290;SDS011;59073;51.994;4.448;2023-11-21T12:50:32;5.63;;;5.59;;
71290;SDS011;59073;51.994;4.448;2023-11-21T12:53:03;5.53;;;5.52;;
71290;SDS011;59073;51.994;4.448;2023-11-21T12:55:31;5.41;;;5.41;;
71290;SDS011;59073;51.994;4.448;2023-11-21T12:57:57;5.77;;;5.77;;
71290;SDS011;59073;51.994;4.448;2023-11-21T13:00:32;4.83;;;4.83;;
71290;SDS011;59073;51.994;4.448;2023-11-21T13:03:02;4.51;;;4.51;;
71290;SDS011;59073;51.994;4.448;2023-11-21T13:05:30;4.61;;;4.61;;
71290;SDS011;59073;51.994;4.448;2023-11-21T13:07:58;4.81;;;4.78;;
71290;SDS011;59073;51.994;4.448;2023-11-21T13:10:28;5.30;;;5.30;;
71290;SDS011;59073;51.994;4.448;2023-11-21T13:13:00;5.10;;;5.10;;
71290;SDS011;59073;51.994;4.448;2023-11-21T13:15:29;5.07;;;5.07;;
71290;SDS011;59073;51.994;4.448;2023-11-21T13:17:56;4.70;;;4.70;;
71290;SDS011;59073;51.994;4.448;2023-11-21T13:20:23;4.81;;;4.80;;
71290;SDS011;59073;51.994;4.448;2023-11-21T13:22:53;4.75;;;4.75;;
71290;SDS011;59073;51.994;4.448;2023-11-21T13:25:24;5.69;;;5.69;;
71290;SDS011;59073;51.994;4.448;2023-11-21T13:27:53;5.13;;;5.12;;
71290;SDS011;59073;51.994;4.448;2023-11-21T13:30:19;4.93;;;4.92;;
71290;SDS011;59073;51.994;4.448;2023-11-21T13:32:51;4.48;;;4.46;;
71290;SDS011;59073;51.994;4.448;2023-11-21T13:35:17;4.24;;;4.23;;
71290;SDS011;59073;51.994;4.448;2023-11-21T13:37:47;4.50;;;4.50;;
71290;SDS011;59073;51.994;4.448;2023-11-21T13:40:15;4.57;;;4.57;;
71290;SDS011;59073;51.994;4.448;2023-11-21T13:42:45;4.51;;;4.51;;
71290;SDS011;59073;51.994;4.448;2023-11-21T13:45:11;5.08;;;5.08;;
71290;SDS011;59073;51.994;4.448;2023-11-21T13:47:37;5.10;;;5.10;;
71290;SDS011;59073;51.994;4.448;2023-11-21T13:50:05;5.43;;;5.41;;
71290;SDS011;59073;51.994;4.448;2023-11-21T13:52:39;5.86;;;5.85;;
71290;SDS011;59073;51.994;4.448;2023-11-21T13:55:04;6.15;;;6.15;;
71290;SDS011;59073;51.994;4.448;2023-11-21T13:57:32;5.66;;;5.66;;
71290;SDS011;59073;51.994;4.448;2023-11-21T13:59:58;5.76;;;5.76;;
71290;SDS011;59073;51.994;4.448;2023-11-21T14:02:24;6.17;;;6.17;;
71290;SDS011;59073;51.994;4.448;2023-11-21T14:04:57;6.13;;;6.12;;
71290;SDS011;59073;51.994;4.448;2023-11-21T14:07:25;6.09;;;6.08;;
71290;SDS011;59073;51.994;4.448;2023-11-21T14:10:01;6.05;;;6.05;;
71290;SDS011;59073;51.994;4.448;2023-11-21T14:12:32;5.99;;;5.95;;
71290;SDS011;59073;51.994;4.448;2023-11-21T14:15:01;5.74;;;5.72;;
71290;SDS011;59073;51.994;4.448;2023-11-21T14:17:30;5.79;;;5.79;;
71290;SDS011;59073;51.994;4.448;2023-11-21T14:19:56;5.61;;;5.61;;
71290;SDS011;59073;51.994;4.448;2023-11-21T14:22:21;5.56;;;5.56;;
71290;SDS011;59073;51.994;4.448;2023-11-21T14:24:46;5.86;;;5.84;;
71290;SDS011;59073;51.994;4.448;2023-11-21T14:27:12;5.71;;;5.64;;
71290;SDS011;59073;51.994;4.448;2023-11-21T14:29:39;5.25;;;5.15;;
71290;SDS011;59073;51.994;4.448;2023-11-21T14:32:08;5.55;;;5.47;;
71290;SDS011;59073;51.994;4.448;2023-11-21T14:34:34;5.66;;;5.65;;
71290;SDS011;59073;51.994;4.448;2023-11-21T14:36:59;6.27;;;6.27;;
71290;SDS011;59073;51.994;4.448;2023-11-21T14:39:28;6.59;;;6.59;;
71290;SDS011;59073;51.994;4.448;2023-11-21T14:41:54;6.79;;;6.78;;
71290;SDS011;59073;51.994;4.448;2023-11-21T14:44:25;7.51;;;7.40;;
71290;SDS011;59073;51.994;4.448;2023-11-21T14:46:57;6.83;;;6.80;;
71290;SDS011;59073;51.994;4.448;2023-11-21T14:49:24;7.81;;;7.71;;
71290;SDS011;59073;51.994;4.448;2023-11-21T14:51:53;7.55;;;7.49;;
71290;SDS011;59073;51.994;4.448;2023-11-21T14:54:26;7.79;;;7.73;;
71290;SDS011;59073;51.994;4.448;2023-11-21T14:57:11;7.47;;;7.38;;
71290;SDS011;59073;51.994;4.448;2023-11-21T14:59:44;7.55;;;7.52;;